Time;durP1;ratioP1;P1;durP2;ratioP2;P2;SDS_P1;SDS_P2;PMS_P1;PMS_P2;Temp;Humidity;BMP_temperature;BMP_pressure;BME280_temperature;BME280_humidity;BME280_pressure;Samples;Min_cycle;Max_cycle;Signal;HPM_P1;HPM_P2
2022/05/11 00:01:42;;;;;;;4.88;2.67;;;19.30;66.30;19.40;100478.00;;;;4948435;28;87655;-67
2022/05/11 00:04:11;;;;;;;3.25;2.53;;;19.30;66.40;19.40;100476.00;;;;4957040;28;88556;-68
2022/05/11 00:06:45;;;;;;;3.53;2.88;;;19.30;66.70;19.30;100472.00;;;;4941293;28;92920;-68
2022/05/11 00:09:13;;;;;;;2.97;2.65;;;19.20;66.90;19.30;100473.00;;;;4943532;28;92139;-68
2022/05/11 00:11:40;;;;;;;4.20;2.78;;;19.10;67.00;19.20;100472.00;;;;4956919;28;108983;-68
2022/05/11 00:14:07;;;;;;;2.78;2.05;;;19.10;67.40;19.10;100467.00;;;;4944079;28;88321;-66
2022/05/11 00:16:34;;;;;;;2.83;2.47;;;19.00;67.70;19.10;100471.00;;;;4937426;28;87828;-66
2022/05/11 00:19:00;;;;;;;3.05;2.78;;;18.90;68.00;19.10;100460.00;;;;4939201;28;103885;-66
2022/05/11 00:21:26;;;;;;;3.20;2.90;;;18.90;68.20;19.00;100461.00;;;;4956960;28;88190;-66
2022/05/11 00:23:53;;;;;;;6.03;3.65;;;18.90;68.80;19.00;100458.00;;;;4944455;28;117461;-66
2022/05/11 00:26:20;;;;;;;3.20;2.90;;;18.80;69.70;18.90;100454.00;;;;4937215;28;89001;-66
2022/05/11 00:28:46;;;;;;;3.13;2.92;;;18.80;69.00;18.90;100450.00;;;;4937788;28;88884;-66
2022/05/11 00:31:12;;;;;;;3.30;2.72;;;18.80;69.30;18.90;100453.00;;;;4937530;28;87786;-66
2022/05/11 00:33:38;;;;;;;2.05;1.92;;;18.70;69.10;18.80;100451.00;;;;4944672;28;88937;-66
2022/05/11 00:36:10;;;;;;;2.78;2.45;;;18.70;69.30;18.80;100452.00;;;;4956006;28;89010;-66
2022/05/11 00:38:36;;;;;;;3.30;2.58;;;18.70;69.40;18.80;100446.00;;;;4956889;28;87895;-66
2022/05/11 00:41:01;;;;;;;2.85;2.33;;;18.60;69.50;18.80;100450.00;;;;4955796;28;108717;-66
2022/05/11 00:43:56;;;;;;;3.30;2.35;;;18.60;69.80;18.70;100446.00;;;;4953329;28;95142;-66
2022/05/11 00:47:04;;;;;;;4.25;2.72;;;18.60;70.30;18.70;100448.00;;;;4916407;28;87962;-66
2022/05/11 00:49:39;;;;;;;3.70;2.65;;;18.60;71.10;18.70;100449.00;;;;4937874;28;87845;-66
2022/05/11 00:52:30;;;;;;;2.92;2.67;;;18.60;70.70;18.70;100447.00;;;;4951715;28;90832;-66
2022/05/11 00:55:00;;;;;;;4.13;2.72;;;18.60;70.60;18.70;100439.00;;;;4969772;28;105371;-66
2022/05/11 00:58:02;;;;;;;2.70;2.50;;;18.60;70.60;18.70;100441.00;;;;4956855;28;87739;-66
2022/05/11 01:00:28;;;;;;;4.15;2.42;;;18.60;70.80;18.70;100444.00;;;;4947175;28;87667;-66
2022/05/11 01:03:03;;;;;;;3.60;2.95;;;18.50;70.90;18.70;100435.00;;;;4950231;28;99243;-66
2022/05/11 01:05:28;;;;;;;3.88;2.50;;;18.50;71.10;18.70;100428.00;;;;4951128;28;88275;-66
2022/05/11 01:07:56;;;;;;;2.80;2.60;;;18.50;71.10;18.70;100430.00;;;;4935315;28;117899;-66
2022/05/11 01:10:26;;;;;;;2.67;2.47;;;18.50;71.30;18.70;100428.00;;;;4949840;28;99885;-66
2022/05/11 01:12:56;;;;;;;3.25;2.95;;;18.50;71.40;18.70;100432.00;;;;4942708;28;97519;-66
2022/05/11 01:15:22;;;;;;;3.33;2.70;;;18.50;71.40;18.70;100431.00;;;;4956453;28;87897;-66
2022/05/11 01:17:48;;;;;;;3.25;2.95;;;18.50;71.40;18.70;100435.00;;;;4951041;28;92673;-66
2022/05/11 01:20:20;;;;;;;2.17;1.98;;;18.50;71.50;18.60;100417.00;;;;4949115;28;110641;-66
2022/05/11 01:22:58;;;;;;;2.20;2.00;;;18.50;71.70;18.60;100426.00;;;;4956343;28;88796;-66
2022/05/11 01:25:24;;;;;;;3.10;2.80;;;18.50;71.70;18.60;100423.00;;;;4940682;28;87803;-66
2022/05/11 01:28:04;;;;;;;2.08;1.98;;;18.50;72.00;18.60;100411.00;;;;4953054;28;117212;-66
2022/05/11 01:30:31;;;;;;;3.42;2.42;;;18.50;72.00;18.60;100417.00;;;;4940978;28;87727;-66
2022/05/11 01:32:57;;;;;;;2.35;2.15;;;18.50;71.80;18.60;100417.00;;;;4936538;28;87766;-66
2022/05/11 01:35:50;;;;;;;3.28;2.38;;;18.50;71.70;18.60;100416.00;;;;4950378;28;92069;-66
2022/05/11 01:38:41;;;;;;;2.38;2.17;;;18.50;71.70;18.60;100415.00;;;;4955588;28;96448;-67
2022/05/11 01:41:11;;;;;;;2.65;2.30;;;18.50;72.20;18.60;100406.00;;;;4935575;28;87749;-66
2022/05/11 01:43:39;;;;;;;2.70;2.25;;;18.40;72.10;18.60;100409.00;;;;4950333;28;100830;-66
2022/05/11 01:46:06;;;;;;;2.85;2.58;;;18.30;72.00;18.60;100407.00;;;;4955350;28;95042;-66
2022/05/11 01:48:32;;;;;;;3.33;2.65;;;18.50;72.10;18.60;100399.00;;;;4956219;28;87666;-66
2022/05/11 01:50:59;;;;;;;2.70;2.45;;;18.50;72.60;18.60;100405.00;;;;4954758;28;87739;-67
2022/05/11 01:53:25;;;;;;;3.67;2.40;;;18.50;72.80;18.70;100387.00;;;;4955839;28;89024;-66
2022/05/11 01:55:51;;;;;;;4.90;3.05;;;18.50;72.90;18.70;100402.00;;;;4937136;28;109786;-67
2022/05/11 01:58:18;;;;;;;8.27;2.92;;;18.50;72.90;18.70;100396.00;;;;4949926;28;116745;-67
2022/05/11 02:00:46;;;;;;;4.05;2.63;;;18.60;72.80;18.70;100406.00;;;;4935517;28;87689;-66
2022/05/11 02:03:13;;;;;;;4.00;2.78;;;18.60;72.80;18.70;100403.00;;;;4955952;28;88042;-66
2022/05/11 02:08:25;;;;;;;3.15;2.25;;;18.60;72.60;18.70;100400.00;;;;4954651;28;87777;-66
2022/05/11 02:10:51;;;;;;;2.67;2.38;;;18.60;72.70;18.70;100400.00;;;;4953565;28;99305;-66
2022/05/11 02:13:16;;;;;;;3.15;2.90;;;18.60;72.60;18.80;100396.00;;;;4954825;28;108220;-66
2022/05/11 02:15:42;;;;;;;4.78;3.22;;;18.60;72.70;18.80;100392.00;;;;4954724;28;88711;-66
2022/05/11 02:18:08;;;;;;;2.67;2.38;;;18.60;72.60;18.80;100394.00;;;;4954323;28;117953;-67
2022/05/11 02:20:34;;;;;;;2.20;2.00;;;18.60;72.40;18.80;100397.00;;;;4945423;28;90108;-67
2022/05/11 02:23:00;;;;;;;3.35;2.35;;;18.60;72.30;18.70;100397.00;;;;4938438;28;107673;-66
2022/05/11 02:25:26;;;;;;;4.10;2.40;;;18.60;72.30;18.80;100393.00;;;;4952561;28;98021;-67
2022/05/11 02:27:53;;;;;;;2.85;2.45;;;18.60;72.40;18.80;100394.00;;;;4958481;28;87700;-66
2022/05/11 02:30:30;;;;;;;3.55;1.98;;;18.60;72.40;18.80;100400.00;;;;4960096;28;87944;-66
2022/05/11 02:32:56;;;;;;;2.67;2.20;;;18.60;72.30;18.70;100390.00;;;;4943900;28;88059;-67
2022/05/11 02:35:24;;;;;;;3.10;2.40;;;18.60;72.30;18.70;100392.00;;;;4939625;28;87623;-67
2022/05/11 02:37:56;;;;;;;2.72;2.47;;;18.60;72.40;18.70;100395.00;;;;4939040;28;87908;-66
2022/05/11 02:40:30;;;;;;;3.42;2.75;;;18.60;72.40;18.70;100396.00;;;;4940485;28;87934;-67
2022/05/11 02:42:56;;;;;;;5.57;2.92;;;18.60;72.30;18.70;100399.00;;;;4939219;28;94995;-66
2022/05/11 02:45:24;;;;;;;2.30;2.10;;;18.60;72.20;18.60;100395.00;;;;4938459;28;105113;-66
2022/05/11 02:47:52;;;;;;;4.07;2.72;;;18.50;72.20;18.60;100399.00;;;;4938485;28;87861;-66
2022/05/11 02:50:26;;;;;;;3.70;1.88;;;18.50;72.30;18.50;100397.00;;;;4940360;28;88001;-66
2022/05/11 02:52:52;;;;;;;2.97;1.85;;;18.40;72.40;18.50;100395.00;;;;4943495;28;87844;-67
2022/05/11 02:55:18;;;;;;;5.22;2.58;;;18.40;72.50;18.40;100401.00;;;;4955954;28;103308;-66
2022/05/11 02:57:53;;;;;;;5.07;2.70;;;18.30;72.60;18.30;100397.00;;;;4957290;28;111224;-66
2022/05/11 03:00:20;;;;;;;2.33;1.95;;;18.30;73.00;18.30;100392.00;;;;4945528;28;86812;-66
2022/05/11 03:02:46;;;;;;;3.55;2.60;;;18.20;73.00;18.20;100385.00;;;;4952308;28;87701;-66
2022/05/11 03:05:13;;;;;;;2.30;2.10;;;18.10;73.50;18.10;100394.00;;;;4954158;28;100400;-66
2022/05/11 03:07:40;;;;;;;3.45;2.83;;;18.00;74.00;18.00;100394.00;;;;4938520;28;89056;-66
2022/05/11 03:10:08;;;;;;;3.15;2.38;;;17.90;74.60;17.90;100397.00;;;;4939091;28;87788;-66
2022/05/11 03:12:34;;;;;;;6.07;2.10;;;17.80;75.00;17.80;100396.00;;;;4939522;28;87866;-66
2022/05/11 03:15:04;;;;;;;2.97;2.60;;;17.70;75.50;17.70;100403.00;;;;4958231;28;88227;-66
2022/05/11 03:17:29;;;;;;;2.97;2.42;;;17.60;76.00;17.60;100395.00;;;;4957487;28;92287;-66
2022/05/11 03:19:55;;;;;;;4.25;3.03;;;17.60;76.40;17.60;100397.00;;;;4957060;28;111079;-66
2022/05/11 03:22:20;;;;;;;3.50;2.85;;;17.50;77.00;17.50;100396.00;;;;4957335;28;88108;-66
2022/05/11 03:24:46;;;;;;;5.45;2.72;;;17.40;77.70;17.40;100400.00;;;;4938639;28;116805;-66
2022/05/11 03:27:12;;;;;;;3.65;3.35;;;17.40;78.20;17.40;100388.00;;;;4937345;28;118370;-66
2022/05/11 03:29:38;;;;;;;3.60;2.97;;;17.30;78.80;17.30;100403.00;;;;4938246;28;87974;-66
2022/05/11 03:34:49;;;;;;;5.10;3.10;;;17.20;80.10;17.20;100398.00;;;;4953501;28;88593;-66
2022/05/11 03:37:18;;;;;;;3.47;2.92;;;17.10;80.30;17.20;100399.00;;;;4957585;28;87950;-66
2022/05/11 03:39:44;;;;;;;4.45;3.22;;;17.10;80.90;17.10;100400.00;;;;4956047;28;87962;-66
2022/05/11 03:42:14;;;;;;;5.90;3.40;;;17.10;81.50;17.10;100402.00;;;;4957294;28;108918;-67
2022/05/11 03:44:40;;;;;;;3.17;2.63;;;17.10;82.00;17.10;100398.00;;;;4938649;28;87982;-67
2022/05/11 03:47:06;;;;;;;3.63;3.30;;;17.00;82.20;17.10;100404.00;;;;4938436;28;87720;-66
2022/05/11 03:49:33;;;;;;;4.60;3.20;;;17.00;82.70;17.10;100399.00;;;;4937654;28;104289;-66
2022/05/11 03:51:59;;;;;;;3.78;3.10;;;17.00;83.30;17.10;100399.00;;;;4937642;28;87813;-66
2022/05/11 03:54:25;;;;;;;3.60;2.92;;;17.00;83.90;17.10;100406.00;;;;4945620;28;88253;-66
2022/05/11 03:56:51;;;;;;;7.72;3.80;;;17.00;84.40;17.10;100401.00;;;;4956134;28;116913;-66
2022/05/11 03:59:17;;;;;;;4.88;3.47;;;17.00;84.90;17.10;100396.00;;;;4951481;28;109967;-66
2022/05/11 04:01:43;;;;;;;5.22;3.85;;;17.00;85.70;17.00;100411.00;;;;4943705;28;87826;-66
2022/05/11 04:04:09;;;;;;;4.38;3.03;;;17.00;87.00;17.00;100406.00;;;;4956515;28;88626;-67
2022/05/11 04:06:34;;;;;;;4.72;3.65;;;16.90;87.60;16.90;100412.00;;;;4941253;28;117093;-66
2022/05/11 04:09:00;;;;;;;4.53;3.58;;;16.90;88.10;16.90;100404.00;;;;4940213;28;109830;-66
2022/05/11 04:11:28;;;;;;;7.00;3.53;;;16.80;88.50;16.90;100412.00;;;;4958033;28;87940;-66
2022/05/11 04:13:55;;;;;;;4.53;3.70;;;16.80;88.80;16.90;100413.00;;;;4947603;28;88503;-66
2022/05/11 04:16:21;;;;;;;3.05;2.75;;;16.80;89.40;17.00;100417.00;;;;4937775;28;87885;-66
2022/05/11 04:18:47;;;;;;;5.85;4.03;;;16.90;89.80;17.10;100407.00;;;;4938024;28;87801;-66
2022/05/11 04:21:13;;;;;;;4.32;3.17;;;16.90;90.00;17.20;100396.00;;;;4937268;28;88724;-67
2022/05/11 04:23:40;;;;;;;3.50;3.15;;;17.00;90.20;17.20;100398.00;;;;4943464;28;87615;-66
2022/05/11 04:26:08;;;;;;;3.47;2.80;;;17.10;90.30;17.30;100406.00;;;;4957442;28;87697;-66
2022/05/11 04:28:34;;;;;;;3.63;3.33;;;17.20;90.30;17.50;100402.00;;;;4957308;28;87828;-66
2022/05/11 04:31:07;;;;;;;5.43;3.60;;;17.30;90.40;17.60;100403.00;;;;4956969;28;87891;-66
2022/05/11 04:33:34;;;;;;;4.15;3.67;;;17.40;90.60;17.60;100410.00;;;;4951508;28;88062;-67
2022/05/11 04:36:01;;;;;;;4.97;3.97;;;17.50;90.80;17.70;100407.00;;;;4952103;28;87920;-66
2022/05/11 04:38:27;;;;;;;3.67;3.15;;;17.60;91.00;17.80;100408.00;;;;4938156;28;87009;-66
2022/05/11 04:40:53;;;;;;;4.00;3.58;;;17.60;91.30;17.80;100410.00;;;;4956205;28;88116;-66
2022/05/11 04:43:18;;;;;;;4.30;3.90;;;17.70;91.50;17.80;100410.00;;;;4952162;28;117900;-66
2022/05/11 04:45:56;;;;;;;5.07;3.97;;;17.70;91.60;17.90;100417.00;;;;4935904;28;116187;-66
2022/05/11 04:48:22;;;;;;;5.20;3.28;;;17.60;91.50;18.00;100409.00;;;;4944970;28;89156;-66
2022/05/11 04:50:48;;;;;;;3.65;3.33;;;17.80;91.40;18.10;100414.00;;;;4955593;28;108423;-66
2022/05/11 04:53:16;;;;;;;5.13;3.55;;;17.90;91.20;18.20;100412.00;;;;4952255;28;88077;-66
2022/05/11 04:55:44;;;;;;;5.72;3.20;;;18.00;91.10;18.30;100416.00;;;;4936618;28;88161;-66
2022/05/11 04:58:09;;;;;;;4.82;3.40;;;18.10;91.00;18.40;100416.00;;;;4943832;28;100533;-66
2022/05/11 05:00:36;;;;;;;5.05;3.95;;;18.20;91.00;18.50;100423.00;;;;4955152;28;109052;-66
2022/05/11 05:03:07;;;;;;;5.00;3.40;;;18.20;90.80;18.50;100426.00;;;;4951826;28;88230;-65
2022/05/11 05:05:33;;;;;;;5.82;2.85;;;18.30;90.60;18.60;100424.00;;;;4949252;28;87652;-67
2022/05/11 05:07:58;;;;;;;4.05;3.65;;;18.40;90.50;18.70;100419.00;;;;4935973;28;110511;-67
2022/05/11 05:10:24;;;;;;;5.55;3.70;;;18.50;90.40;18.70;100422.00;;;;4936119;28;108229;-65
2022/05/11 05:12:50;;;;;;;6.55;4.45;;;18.60;90.40;18.80;100426.00;;;;4950591;28;117753;-65
2022/05/11 05:15:18;;;;;;;4.53;3.38;;;18.60;90.30;18.90;100429.00;;;;4953628;28;96773;-65
2022/05/11 05:17:44;;;;;;;6.15;3.13;;;18.70;90.20;19.00;100423.00;;;;4955695;28;107963;-65
2022/05/11 05:20:13;;;;;;;9.63;3.47;;;18.80;90.20;19.20;100441.00;;;;4954710;28;87737;-65
2022/05/11 05:22:39;;;;;;;3.28;2.72;;;18.90;90.10;19.30;100436.00;;;;4948024;28;88703;-65
2022/05/11 05:25:05;;;;;;;3.72;2.60;;;19.10;90.00;19.50;100430.00;;;;4935279;28;116615;-65
2022/05/11 05:27:31;;;;;;;4.28;3.28;;;19.20;89.50;19.60;100426.00;;;;4936641;28;89076;-65
2022/05/11 05:32:46;;;;;;;4.55;2.47;;;19.50;88.40;19.90;100435.00;;;;4944675;28;87802;-65
2022/05/11 05:35:16;;;;;;;3.42;2.67;;;19.70;87.90;20.00;100436.00;;;;4955774;28;88639;-65
2022/05/11 05:37:43;;;;;;;3.40;2.70;;;19.80;87.50;20.10;100439.00;;;;4956331;28;87812;-65
2022/05/11 05:40:09;;;;;;;2.67;2.30;;;19.90;87.00;20.20;100431.00;;;;4949571;28;87916;-65
2022/05/11 05:42:35;;;;;;;3.50;2.47;;;20.00;86.40;20.30;100442.00;;;;4936334;28;88891;-65
2022/05/11 05:45:01;;;;;;;3.45;2.58;;;20.10;85.80;20.50;100440.00;;;;4935707;28;100647;-65
2022/05/11 05:47:27;;;;;;;3.20;2.90;;;20.20;85.20;20.70;100441.00;;;;4935853;28;87995;-65
2022/05/11 05:49:53;;;;;;;6.03;2.17;;;20.40;84.70;20.80;100437.00;;;;4938398;28;109171;-66
2022/05/11 05:52:24;;;;;;;3.42;2.78;;;20.60;83.80;21.00;100440.00;;;;4955215;28;115991;-66
2022/05/11 05:54:53;;;;;;;2.45;1.80;;;20.70;83.00;21.20;100432.00;;;;4956032;28;90806;-66
2022/05/11 05:57:19;;;;;;;3.03;2.35;;;20.90;82.00;21.40;100438.00;;;;4942594;28;87960;-66
2022/05/11 05:59:45;;;;;;;2.80;2.53;;;21.10;81.00;21.60;100441.00;;;;4954167;28;88707;-66
2022/05/11 06:02:16;;;;;;;4.82;2.28;;;21.30;80.00;21.80;100440.00;;;;4951916;28;89537;-66
2022/05/11 06:04:44;;;;;;;5.22;2.63;;;21.50;78.70;21.90;100442.00;;;;4950033;28;87879;-66
2022/05/11 06:07:11;;;;;;;2.25;1.75;;;21.60;77.70;22.00;100445.00;;;;4953228;28;88003;-66
2022/05/11 06:09:39;;;;;;;2.83;2.30;;;21.70;76.00;22.00;100431.00;;;;4956074;28;90319;-66
2022/05/11 06:12:11;;;;;;;6.90;2.10;;;21.80;73.20;22.00;100431.00;;;;4941165;28;89242;-65
2022/05/11 06:14:38;;;;;;;2.85;2.22;;;21.80;72.60;22.00;100428.00;;;;4935607;28;88667;-67
2022/05/11 06:17:12;;;;;;;4.53;2.28;;;21.80;72.40;22.00;100426.00;;;;4937151;28;87307;-68
2022/05/11 06:19:39;;;;;;;4.43;1.95;;;21.80;72.10;21.90;100435.00;;;;4968021;28;88213;-66
2022/05/11 06:22:05;;;;;;;2.47;2.17;;;21.70;71.20;21.90;100429.00;;;;4940617;28;88327;-66
2022/05/11 06:24:30;;;;;;;2.55;1.88;;;21.70;70.50;21.90;100425.00;;;;4934702;28;116724;-65
2022/05/11 06:26:56;;;;;;;3.42;2.15;;;21.70;70.80;21.90;100443.00;;;;4935157;28;87730;-66
2022/05/11 06:29:22;;;;;;;4.40;2.35;;;21.70;70.50;22.00;100435.00;;;;4939994;28;108293;-65
2022/05/11 06:31:48;;;;;;;2.30;2.03;;;21.70;70.70;22.10;100438.00;;;;4953600;28;87693;-66
2022/05/11 06:34:15;;;;;;;3.58;2.10;;;21.80;70.40;22.20;100444.00;;;;4954056;28;116812;-65
2022/05/11 06:36:42;;;;;;;3.50;2.53;;;21.90;69.80;22.30;100443.00;;;;4955526;28;87733;-66
2022/05/11 06:39:08;;;;;;;3.10;1.85;;;22.00;69.40;22.40;100449.00;;;;4951831;28;87996;-67
2022/05/11 06:41:34;;;;;;;2.22;1.85;;;22.10;68.70;22.50;100455.00;;;;4945158;28;94032;-66
2022/05/11 06:44:00;;;;;;;2.75;2.13;;;22.20;68.20;22.60;100456.00;;;;4935550;28;87842;-66
2022/05/11 06:46:26;;;;;;;4.80;1.95;;;22.30;67.70;22.70;100455.00;;;;4944597;28;109802;-65
2022/05/11 06:48:52;;;;;;;3.40;2.42;;;22.40;66.70;22.80;100454.00;;;;4955239;28;88706;-65
2022/05/11 06:51:21;;;;;;;2.58;1.92;;;22.50;65.70;22.80;100464.00;;;;4954906;28;87878;-65
2022/05/11 06:59:25;;;;;;;1.90;1.77;;;22.70;65.00;22.90;100453.00;;;;4952470;28;87859;-65
2022/05/11 07:01:57;;;;;;;3.85;2.30;;;22.70;64.60;22.90;100455.00;;;;4954546;28;88592;-65
2022/05/11 07:04:27;;;;;;;4.38;2.22;;;22.70;64.10;23.00;100449.00;;;;4953394;28;88792;-65
2022/05/11 07:06:57;;;;;;;2.88;2.20;;;22.70;63.80;23.00;100453.00;;;;4955790;28;87070;-67
2022/05/11 07:09:26;;;;;;;2.55;2.25;;;22.70;63.20;22.90;100447.00;;;;4956351;28;87689;-65
2022/05/11 07:14:36;;;;;;;2.30;1.70;;;22.70;63.70;22.90;100448.00;;;;4943428;28;88950;-66
2022/05/11 07:17:03;;;;;;;3.83;2.75;;;22.70;63.90;22.90;100434.00;;;;4937881;28;101860;-66
2022/05/11 07:19:29;;;;;;;3.60;2.72;;;22.60;63.80;22.90;100438.00;;;;4944080;28;101488;-66
2022/05/11 07:21:54;;;;;;;3.35;2.00;;;22.70;63.60;23.00;100432.00;;;;4957469;28;95217;-65
2022/05/11 07:24:21;;;;;;;2.20;1.60;;;22.70;63.20;23.00;100437.00;;;;4957806;28;90593;-66
2022/05/11 07:26:50;;;;;;;2.15;1.85;;;22.80;63.40;23.20;100429.00;;;;4956584;28;109965;-65
2022/05/11 07:29:16;;;;;;;4.53;2.13;;;22.90;63.60;23.30;100430.00;;;;4953028;28;87825;-66
2022/05/11 07:31:43;;;;;;;3.72;1.80;;;23.00;63.00;23.40;100429.00;;;;4938794;28;87171;-67
2022/05/11 07:34:08;;;;;;;5.10;2.45;;;23.10;62.10;23.40;100425.00;;;;4937975;28;87993;-65
2022/05/11 07:36:34;;;;;;;4.55;1.80;;;23.10;62.00;23.40;100428.00;;;;4937628;28;109490;-66
2022/05/11 07:39:01;;;;;;;3.20;1.92;;;23.20;62.20;23.50;100419.00;;;;4938357;28;108153;-70
2022/05/11 07:41:27;;;;;;;4.18;1.92;;;23.20;62.10;23.70;100415.00;;;;4954355;28;87690;-70
2022/05/11 07:43:52;;;;;;;2.35;1.40;;;23.40;61.60;23.80;100406.00;;;;4937579;28;88448;-68
2022/05/11 07:46:18;;;;;;;2.30;2.10;;;23.50;61.20;24.00;100404.00;;;;4946452;28;109447;-68
2022/05/11 07:48:44;;;;;;;2.85;2.20;;;23.70;60.90;24.30;100404.00;;;;4957433;28;87564;-68
2022/05/11 07:51:09;;;;;;;3.53;2.78;;;23.90;60.40;24.60;100402.00;;;;4936565;28;117793;-70
2022/05/11 07:53:35;;;;;;;2.63;1.98;;;24.30;59.90;25.00;100398.00;;;;4937117;28;117360;-68
2022/05/11 08:01:31;;;;;;;1.80;1.70;;;25.30;56.90;26.00;100402.00;;;;4952597;28;87611;-69
2022/05/11 08:03:57;;;;;;;2.63;2.03;;;25.60;54.90;26.10;100396.00;;;;4955807;28;88698;-70
2022/05/11 08:06:23;;;;;;;4.07;2.08;;;25.80;54.60;26.20;100403.00;;;;4957423;28;88014;-71
2022/05/11 08:08:50;;;;;;;1.73;1.35;;;25.90;53.90;26.10;100404.00;;;;4954336;28;108268;-69
2022/05/11 08:11:16;;;;;;;1.42;1.33;;;25.80;53.70;26.10;100403.00;;;;4957441;28;88440;-69
2022/05/11 08:13:41;;;;;;;4.22;2.20;;;25.80;53.60;26.20;100403.00;;;;4942287;28;112219;-70
2022/05/11 08:16:07;;;;;;;2.53;2.25;;;25.90;52.60;26.20;100397.00;;;;4937418;28;87914;-71
2022/05/11 08:18:33;;;;;;;3.03;2.50;;;25.90;53.20;26.20;100396.00;;;;4937781;28;87783;-69
2022/05/11 08:20:59;;;;;;;5.57;1.92;;;25.90;53.00;26.20;100398.00;;;;4939781;28;88436;-71
2022/05/11 08:23:26;;;;;;;1.67;1.40;;;25.90;52.90;26.20;100403.00;;;;4937291;28;87756;-70
2022/05/11 08:25:54;;;;;;;5.88;1.88;;;25.90;53.00;26.20;100398.00;;;;4938093;28;88359;-70
2022/05/11 08:28:22;;;;;;;3.25;2.00;;;26.00;52.10;26.20;100403.00;;;;4936846;28;88704;-69
2022/05/11 08:33:38;;;;;;;1.60;1.50;;;26.00;52.00;26.40;100392.00;;;;4956351;28;87659;-71
2022/05/11 08:36:11;;;;;;;4.63;1.75;;;26.10;51.70;26.60;100389.00;;;;4956433;28;87944;-72
2022/05/11 08:38:41;;;;;;;2.78;1.58;;;26.30;51.90;26.90;100391.00;;;;4955093;28;88252;-69
2022/05/11 08:41:34;;;;;;;1.48;1.38;;;26.50;52.00;27.20;100393.00;;;;4937820;28;88043;-72
2022/05/11 08:44:11;;;;;;;2.65;1.75;;;26.80;51.60;27.40;100391.00;;;;4936753;28;87690;-70
2022/05/11 08:46:55;;;;;;;3.25;2.28;;;27.10;50.80;27.70;100396.00;;;;4937664;28;86995;-70
2022/05/11 08:49:25;;;;;;;2.22;1.70;;;27.30;50.10;27.80;100395.00;;;;4939679;28;87994;-72
2022/05/11 08:51:59;;;;;;;1.80;1.38;;;27.50;49.00;27.90;100381.00;;;;4956215;28;89294;-70
2022/05/11 08:54:46;;;;;;;2.13;1.95;;;27.60;48.30;28.00;100380.00;;;;4954290;28;88669;-72
2022/05/11 08:57:23;;;;;;;1.92;1.48;;;27.70;48.50;28.20;100382.00;;;;4954864;28;103854;-70
2022/05/11 08:59:58;;;;;;;1.90;1.73;;;27.80;48.80;28.30;100365.00;;;;4960875;28;87868;-70
2022/05/11 09:02:30;;;;;;;2.22;1.50;;;28.00;47.60;28.20;100382.00;;;;4950991;28;87677;-69
2022/05/11 09:05:00;;;;;;;1.60;1.50;;;27.90;46.70;28.10;100370.00;;;;4966924;28;92234;-70
2022/05/11 09:07:38;;;;;;;1.73;1.40;;;27.90;47.00;28.20;100373.00;;;;4936348;28;99359;-72
2022/05/11 09:10:09;;;;;;;1.85;1.75;;;27.90;47.10;28.20;100370.00;;;;4939970;28;97409;-70
2022/05/11 09:12:36;;;;;;;2.22;1.67;;;27.90;46.40;28.20;100363.00;;;;4936905;28;90957;-71
2022/05/11 09:15:03;;;;;;;1.45;1.35;;;27.90;45.70;28.20;100369.00;;;;4939347;28;87911;-71
2022/05/11 09:17:34;;;;;;;1.80;1.08;;;27.90;46.30;28.20;100369.00;;;;4953696;28;99754;-71
2022/05/11 09:20:12;;;;;;;2.15;1.95;;;27.90;45.60;28.10;100368.00;;;;4941295;28;88813;-70
2022/05/11 09:22:59;;;;;;;4.03;2.08;;;27.90;45.40;28.00;100362.00;;;;4955429;28;99127;-70
2022/05/11 09:25:29;;;;;;;1.40;1.15;;;27.90;46.00;28.10;100369.00;;;;4939635;28;87879;-71
2022/05/11 09:28:29;;;;;;;5.00;1.60;;;27.80;46.00;28.30;100360.00;;;;4935523;28;87846;-72
2022/05/11 09:30:58;;;;;;;2.75;1.25;;;27.90;44.80;28.40;100355.00;;;;4970023;28;88164;-71
2022/05/11 09:33:31;;;;;;;1.50;1.05;;;28.00;43.80;28.40;100352.00;;;;4937739;28;91591;-70
2022/05/11 09:35:58;;;;;;;2.50;1.50;;;28.10;43.60;28.50;100349.00;;;;4936126;28;88058;-70
2022/05/11 09:38:40;;;;;;;1.02;1.02;;;28.10;43.60;28.60;100350.00;;;;4969236;28;87433;-71
2022/05/11 09:41:17;;;;;;;1.92;1.52;;;28.20;43.80;28.60;100354.00;;;;4952184;28;87688;-70
2022/05/11 09:43:50;;;;;;;0.90;0.90;;;28.30;43.60;28.80;100340.00;;;;4940659;28;88605;-73
2022/05/11 09:46:28;;;;;;;1.30;1.20;;;28.40;44.10;29.00;100339.00;;;;4967326;28;89176;-72
2022/05/11 09:49:19;;;;;;;5.57;2.15;;;28.50;44.00;29.10;100335.00;;;;4919019;28;87736;-72
2022/05/11 09:51:50;;;;;;;1.30;1.00;;;28.70;43.70;29.10;100336.00;;;;4936878;28;87559;-70
2022/05/11 09:54:37;;;;;;;2.63;1.45;;;28.70;41.90;29.10;100345.00;;;;4935489;28;87714;-70
2022/05/11 09:57:09;;;;;;;2.65;1.05;;;28.70;42.60;29.40;100332.00;;;;4947398;28;87860;-72
2022/05/11 09:59:43;;;;;;;1.23;1.10;;;28.90;42.30;29.50;100332.00;;;;4953568;28;87668;-71
2022/05/11 10:02:32;;;;;;;1.88;1.05;;;29.10;42.30;29.60;100324.00;;;;4959286;28;87903;-69
2022/05/11 10:05:08;;;;;;;2.67;1.70;;;29.20;41.60;29.40;100326.00;;;;4940468;28;87002;-72
2022/05/11 10:08:01;;;;;;;1.25;1.15;;;29.10;41.30;29.40;100319.00;;;;4935902;28;87806;-71
2022/05/11 10:10:47;;;;;;;1.67;1.30;;;29.00;41.80;29.50;100298.00;;;;4942641;28;88010;-71
2022/05/11 10:13:31;;;;;;;4.10;1.58;;;29.10;41.40;29.30;100304.00;;;;4950176;28;88763;-71
2022/05/11 10:22:13;;;;;;;1.00;1.00;;;29.00;40.70;29.60;100299.00;;;;4936939;28;87972;-70
2022/05/11 10:25:14;;;;;;;2.15;1.00;;;29.10;39.90;29.70;100298.00;;;;4936326;28;87844;-71
2022/05/11 10:27:53;;;;;;;1.50;1.10;;;29.30;40.30;29.80;100299.00;;;;4935364;28;88188;-71
2022/05/11 10:31:12;;;;;;;2.85;1.30;;;29.40;39.80;30.00;100302.00;;;;4960408;28;88111;-69
2022/05/11 10:34:01;;;;;;;1.52;1.35;;;29.50;39.60;30.30;100296.00;;;;4935045;28;86987;-70
2022/05/11 10:36:57;;;;;;;4.18;1.63;;;29.80;39.30;30.50;100285.00;;;;4950536;28;87714;-70
2022/05/11 10:40:00;;;;;;;5.50;2.58;;;30.00;38.30;30.40;100298.00;;;;4940376;28;110036;-71
2022/05/11 10:42:36;;;;;;;1.52;1.00;;;30.00;38.30;30.30;100279.00;;;;4938726;28;88717;-70
2022/05/11 10:45:21;;;;;;;2.08;1.02;;;30.00;38.90;30.40;100280.00;;;;4937631;28;87825;-69
2022/05/11 10:48:11;;;;;;;2.55;1.45;;;30.10;38.80;30.60;100274.00;;;;4953856;28;87911;-71
2022/05/11 10:51:01;;;;;;;1.83;1.23;;;30.00;38.60;30.80;100276.00;;;;4947338;28;88112;-70
2022/05/11 10:53:48;;;;;;;1.00;0.88;;;30.30;38.90;30.90;100288.00;;;;4936563;28;92700;-71
2022/05/11 10:56:33;;;;;;;4.72;1.55;;;30.50;38.10;30.80;100271.00;;;;4938890;28;87813;-71
2022/05/11 10:59:45;;;;;;;1.77;1.20;;;30.40;38.20;30.70;100277.00;;;;4970451;28;87820;-71
2022/05/11 11:02:57;;;;;;;1.55;1.25;;;30.40;38.10;30.50;100273.00;;;;4931230;28;110315;-70
2022/05/11 11:09:02;;;;;;;4.40;1.10;;;30.20;38.30;30.50;100271.00;;;;4938804;28;87878;-72
2022/05/11 11:11:53;;;;;;;5.43;3.78;;;30.10;37.80;30.70;100265.00;;;;4957984;28;88746;-70
2022/05/11 11:14:30;;;;;;;1.85;1.30;;;30.30;38.60;30.80;100268.00;;;;4954330;28;88209;-70
2022/05/11 11:16:57;;;;;;;2.10;1.42;;;30.40;38.30;31.00;100255.00;;;;4939393;28;90062;-72
2022/05/11 11:19:24;;;;;;;1.38;0.93;;;30.50;37.70;31.10;100243.00;;;;4956202;28;87854;-70
2022/05/11 11:21:50;;;;;;;1.95;1.20;;;30.60;38.00;31.30;100284.00;;;;4958101;28;87855;-71
2022/05/11 11:24:23;;;;;;;1.30;1.20;;;30.80;37.00;31.20;100259.00;;;;4952743;28;117205;-73
2022/05/11 11:26:54;;;;;;;2.10;1.45;;;30.90;36.60;31.30;100259.00;;;;4957331;28;88591;-70
2022/05/11 11:29:34;;;;;;;1.40;1.00;;;30.80;36.90;31.40;100238.00;;;;4955260;28;87017;-71
2022/05/11 11:32:20;;;;;;;1.33;1.15;;;31.00;36.80;31.70;100255.00;;;;4938890;28;87613;-72
2022/05/11 11:35:24;;;;;;;1.40;1.17;;;31.10;36.70;32.00;100255.00;;;;4956387;28;87976;-71
2022/05/11 11:38:00;;;;;;;2.20;1.38;;;31.40;36.80;32.00;100242.00;;;;4932122;28;116549;-72